Kenna, New Mexico
Current Conditions -  °F | °C
As of 7:56 AM on Friday 28 Nov 2014 (Local Time) from K4MR Reporting Station
Clear Clear  
Wind Chill: 42°   Ceiling: Unl
Heat Index: 49°   Visibility: 10mi
Dew Point: 22°   Wind: 18mph
Humidity: 35%   Direction: 270°W
Pressure: 30.15"   Gusts: NA
Location:  33.84°N, 103.77°W
Report Text: K4MR 281456Z AUTO 27016KT 10SM CLR 09/M05 A3015 RMK AO2 SLP192 T00921055 55004
Loading
Personal Weather Stations






























Interactive Weather Map New forecast layout! Learn more

10-Day Weather Forecast

Advertisements
Track Severe Weather on mobile